KORF/ORF METAR and TAF weather

Enter ICAO airport designator
Station Type Date Time Source
KORF METAR 2022/05/26 03:51 UTC NOAA

KORF 260351Z 05009KT 5SM -RA BR OVC008 15/15 A3026 RMK AO2 RAB01E11B42 SLP247 P0000 T01500150


Station Type Date Time Source
KORF Decoded METAR 2022/05/26 03:51 UTC NOAA

NORFOLK INTERNATIONAL AIRPORT , VA, United States (KORF) 36-54N 076-12W 14M
May 25, 2022 - 11:51 PM EDT / 2022.05.26 0351 UTC
Wind: from the NE (050 degrees) at 10 MPH (9 KT):0
Visibility: 5 mile(s):0
Sky conditions: overcast
Weather: light rain; mist
Precipitation last hour: A trace
Temperature: 59.0 F (15.0 C)
Dew Point: 59.0 F (15.0 C)
Relative Humidity: 100%
Pressure (altimeter): 30.26 in. Hg (1024 hPa)
ob: KORF 260351Z 05009KT 5SM -RA BR OVC008 15/15 A3026 RMK AO2 RAB01E11B42 SLP247 P0000 T01500150
cycle: 4

Station Type Date Time Source
KORF TAF 2022/05/26 03:06 UTC NOAA

TAF
AMD KORF 260303Z 2603/2624 06012KT 5SM -DZ BR OVC006
FM260600 07010KT 5SM -DZ BR OVC004
FM261400 11008KT P6SM OVC004
FM261600 12008KT P6SM BKN009
FM262100 14009KT P6SM BKN040

Example: see airport list